createdAt,value
2023-08-16T00:00:39.796Z,38.44
2023-08-16T00:01:39.749Z,38.46
2023-08-16T00:02:39.800Z,38.73
2023-08-16T00:03:39.866Z,38.95
2023-08-16T00:04:39.810Z,38.56
2023-08-16T00:05:39.738Z,38.52
2023-08-16T00:06:40.705Z,38.35
2023-08-16T00:07:39.743Z,38.27
2023-08-16T00:08:39.732Z,38.57
2023-08-16T00:09:39.713Z,38.26
2023-08-16T00:10:39.694Z,38.63
2023-08-16T00:11:39.672Z,38.57
2023-08-16T00:12:39.695Z,38.32
2023-08-16T00:13:39.672Z,38.59
2023-08-16T00:14:39.656Z,38.23
2023-08-16T00:15:39.649Z,38.60
2023-08-16T00:16:39.687Z,38.68
2023-08-16T00:17:39.701Z,38.56
2023-08-16T00:18:39.628Z,38.78
2023-08-16T00:19:39.625Z,38.51
2023-08-16T00:20:39.612Z,39.05
2023-08-16T00:21:39.602Z,38.30
2023-08-16T00:22:39.628Z,38.37
2023-08-16T00:23:39.590Z,38.54
2023-08-16T00:24:39.592Z,38.68
2023-08-16T00:25:39.571Z,38.76
2023-08-16T00:26:39.595Z,38.99
2023-08-16T00:27:39.582Z,38.91
2023-08-16T00:28:39.545Z,38.87
2023-08-16T00:29:39.539Z,38.46
2023-08-16T00:30:39.602Z,38.57
2023-08-16T00:31:39.570Z,38.70
2023-08-16T00:32:39.566Z,38.56
2023-08-16T00:33:39.528Z,38.42
2023-08-16T00:34:39.536Z,38.62
2023-08-16T00:35:39.499Z,38.93
2023-08-16T00:36:39.500Z,39.10
2023-08-16T00:37:39.515Z,38.73
2023-08-16T00:38:39.495Z,38.52
2023-08-16T00:39:39.474Z,38.85
2023-08-16T00:40:39.479Z,38.39
2023-08-16T00:41:39.488Z,38.65
2023-08-16T00:42:39.448Z,38.95
2023-08-16T00:43:39.469Z,38.83
2023-08-16T00:44:40.218Z,39.13
2023-08-16T00:45:39.518Z,39.15
2023-08-16T00:46:39.466Z,38.43
2023-08-16T00:47:39.438Z,38.51
2023-08-16T00:48:39.418Z,38.75
2023-08-16T00:49:39.411Z,38.22
2023-08-16T00:50:39.438Z,38.43
2023-08-16T00:51:39.393Z,38.49
2023-08-16T00:52:39.368Z,38.08
2023-08-16T00:53:39.559Z,38.09
2023-08-16T00:54:39.403Z,38.22
2023-08-16T00:55:39.381Z,38.21
2023-08-16T00:56:39.357Z,38.00
2023-08-16T00:57:39.364Z,38.29
2023-08-16T00:58:39.341Z,38.30
2023-08-16T00:59:39.345Z,38.05
2023-08-16T01:00:39.333Z,38.55
2023-08-16T01:01:39.389Z,38.33
2023-08-16T01:02:39.400Z,38.52
2023-08-16T01:03:39.475Z,37.94
2023-08-16T01:04:39.323Z,38.20
2023-08-16T01:05:39.281Z,38.28
2023-08-16T01:06:39.270Z,38.29
2023-08-16T01:07:39.256Z,38.05
2023-08-16T01:08:39.273Z,37.91
2023-08-16T01:09:39.537Z,37.96
2023-08-16T01:10:39.235Z,38.26
2023-08-16T01:11:39.217Z,38.52
2023-08-16T01:12:39.214Z,38.28
2023-08-16T01:13:39.254Z,38.21
2023-08-16T01:14:39.414Z,37.95
2023-08-16T01:15:39.222Z,38.10
2023-08-16T01:16:39.187Z,38.47
2023-08-16T01:17:39.202Z,38.36
2023-08-16T01:18:39.219Z,38.29
2023-08-16T01:19:39.168Z,38.06
2023-08-16T01:20:39.244Z,37.83
2023-08-16T01:21:39.199Z,38.03
2023-08-16T01:22:39.173Z,37.77
2023-08-16T01:23:39.164Z,37.76
2023-08-16T01:24:39.135Z,38.63
2023-08-16T01:25:39.129Z,38.45
2023-08-16T01:26:39.110Z,38.17
2023-08-16T01:27:39.125Z,38.08
2023-08-16T01:28:39.108Z,38.52
2023-08-16T01:29:39.110Z,39.73
2023-08-16T01:30:39.089Z,38.26
2023-08-16T01:31:39.125Z,37.77
2023-08-16T01:32:39.118Z,38.22
2023-08-16T01:33:39.072Z,38.07
2023-08-16T01:34:40.060Z,37.59
2023-08-16T01:35:39.053Z,38.14
2023-08-16T01:36:39.141Z,38.70
2023-08-16T01:37:39.045Z,38.28
2023-08-16T01:38:39.033Z,37.79
2023-08-16T01:39:39.038Z,37.90
2023-08-16T01:40:41.044Z,38.17
2023-08-16T01:41:40.049Z,37.90
2023-08-16T01:42:39.024Z,37.85
2023-08-16T01:43:38.999Z,38.42
2023-08-16T01:44:38.973Z,37.91
2023-08-16T01:45:39.065Z,38.12
2023-08-16T01:46:39.108Z,38.28
2023-08-16T01:47:39.002Z,38.10
2023-08-16T01:48:38.963Z,37.74
2023-08-16T01:49:38.940Z,37.62
2023-08-16T01:50:38.942Z,37.63
2023-08-16T01:51:38.947Z,37.50
2023-08-16T01:52:38.905Z,37.47
2023-08-16T01:53:39.129Z,37.82
2023-08-16T01:54:38.903Z,37.41
2023-08-16T01:55:38.905Z,37.65
2023-08-16T01:56:38.875Z,37.42
2023-08-16T01:57:38.882Z,37.77
2023-08-16T01:58:38.872Z,37.96
2023-08-16T01:59:38.860Z,37.98
2023-08-16T02:00:38.873Z,38.18
2023-08-16T02:01:38.879Z,38.33
2023-08-16T02:02:38.942Z,38.13
2023-08-16T02:03:38.925Z,37.86
2023-08-16T02:04:38.907Z,38.05
2023-08-16T02:05:38.848Z,38.17
2023-08-16T02:06:38.841Z,37.99
2023-08-16T02:07:38.925Z,38.21
2023-08-16T02:08:38.903Z,37.53
2023-08-16T02:09:38.975Z,37.87
2023-08-16T02:10:38.788Z,38.05
2023-08-16T02:11:38.786Z,37.99
2023-08-16T02:12:38.779Z,37.92
2023-08-16T02:13:38.775Z,37.90
2023-08-16T02:14:38.820Z,37.90
2023-08-16T02:15:38.806Z,38.02
2023-08-16T02:16:38.745Z,38.04
2023-08-16T02:17:38.775Z,38.44
2023-08-16T02:18:38.748Z,37.94
2023-08-16T02:19:38.776Z,38.06
2023-08-16T02:20:38.708Z,38.03
2023-08-16T02:21:38.712Z,38.02
2023-08-16T02:22:43.107Z,37.76
2023-08-16T02:23:40.702Z,38.60
2023-08-16T02:24:38.675Z,38.26
2023-08-16T02:25:38.671Z,38.52
2023-08-16T02:26:38.689Z,37.95
2023-08-16T02:27:38.657Z,38.99
2023-08-16T02:28:38.680Z,38.15
2023-08-16T02:29:38.640Z,38.34
2023-08-16T02:30:38.637Z,38.52
2023-08-16T02:31:38.643Z,38.26
2023-08-16T02:32:38.683Z,39.12
2023-08-16T02:33:38.631Z,38.64
2023-08-16T02:34:38.613Z,38.94
2023-08-16T02:35:38.601Z,38.39
2023-08-16T02:36:38.687Z,38.23
2023-08-16T02:37:38.607Z,38.13
2023-08-16T02:38:38.581Z,39.71
2023-08-16T02:39:38.574Z,38.54
2023-08-16T02:40:38.634Z,38.26
2023-08-16T02:41:38.568Z,38.83
2023-08-16T02:42:38.589Z,38.58
2023-08-16T02:43:38.536Z,38.85
2023-08-16T02:44:38.535Z,37.99
2023-08-16T02:45:38.543Z,38.20
2023-08-16T02:46:38.624Z,38.27
2023-08-16T02:47:38.805Z,38.61
2023-08-16T02:48:38.518Z,38.42
2023-08-16T02:49:38.494Z,38.25
2023-08-16T02:50:38.521Z,38.91
2023-08-16T02:51:38.752Z,38.23
2023-08-16T02:52:38.507Z,38.15
2023-08-16T02:53:38.471Z,38.07
2023-08-16T02:54:38.460Z,38.51
2023-08-16T02:55:38.506Z,38.40
2023-08-16T02:56:38.590Z,38.37
2023-08-16T02:57:38.438Z,38.62
2023-08-16T02:58:38.429Z,39.43
2023-08-16T02:59:38.423Z,38.81
2023-08-16T03:00:38.481Z,38.75
2023-08-16T03:01:38.435Z,38.17
2023-08-16T03:02:38.511Z,38.55
2023-08-16T03:03:38.399Z,38.61
2023-08-16T03:04:38.385Z,39.74
2023-08-16T03:05:38.730Z,39.30
2023-08-16T03:06:38.408Z,39.14
2023-08-16T03:07:38.364Z,39.13
2023-08-16T03:08:38.360Z,38.79
2023-08-16T03:09:38.358Z,39.34
2023-08-16T03:10:38.392Z,38.96
2023-08-16T03:11:38.334Z,39.44
2023-08-16T03:12:38.345Z,39.80
2023-08-16T03:13:38.326Z,39.55
2023-08-16T03:14:38.329Z,38.94
2023-08-16T03:15:38.299Z,39.41
2023-08-16T03:16:38.350Z,39.09
2023-08-16T03:17:38.349Z,39.90
2023-08-16T03:18:38.291Z,39.49
2023-08-16T03:19:38.328Z,39.62
2023-08-16T03:20:38.284Z,39.29
2023-08-16T03:21:38.257Z,39.37
2023-08-16T03:22:38.250Z,39.39
2023-08-16T03:23:38.267Z,40.84
2023-08-16T03:24:38.266Z,40.79
2023-08-16T03:25:38.252Z,39.38
2023-08-16T03:26:38.218Z,39.98
2023-08-16T03:27:38.237Z,39.73
2023-08-16T03:28:38.232Z,40.01
2023-08-16T03:29:38.208Z,38.95
2023-08-16T03:30:38.240Z,38.47
2023-08-16T03:31:38.191Z,40.19
2023-08-16T03:32:38.182Z,39.59
2023-08-16T03:33:38.194Z,39.56
2023-08-16T03:34:38.168Z,38.91
2023-08-16T03:35:38.153Z,39.66
2023-08-16T03:36:38.133Z,39.50
2023-08-16T03:37:39.158Z,39.41
2023-08-16T03:38:38.135Z,41.87
2023-08-16T03:39:38.119Z,39.27
2023-08-16T03:40:38.119Z,39.51
2023-08-16T03:41:38.148Z,39.67
2023-08-16T03:42:38.113Z,39.80
2023-08-16T03:43:38.133Z,40.34
2023-08-16T03:44:38.082Z,40.95
2023-08-16T03:45:38.071Z,40.62
2023-08-16T03:46:38.161Z,39.51
2023-08-16T03:47:38.120Z,39.72
2023-08-16T03:48:38.058Z,40.69
2023-08-16T03:49:38.041Z,40.14
2023-08-16T03:50:38.050Z,39.46
2023-08-16T03:51:38.065Z,39.03
2023-08-16T03:52:38.042Z,39.21
2023-08-16T03:53:38.011Z,39.79
2023-08-16T03:54:38.027Z,38.87
2023-08-16T03:55:38.000Z,39.90
2023-08-16T03:56:38.012Z,40.37
2023-08-16T03:57:37.991Z,41.25
2023-08-16T03:58:38.001Z,39.83
2023-08-16T03:59:37.984Z,40.95
2023-08-16T04:00:37.967Z,39.76
2023-08-16T04:01:38.032Z,38.90
2023-08-16T04:02:38.072Z,39.93
2023-08-16T04:03:38.007Z,40.19
2023-08-16T04:04:37.935Z,39.98
2023-08-16T04:05:37.974Z,40.12
2023-08-16T04:06:37.958Z,39.27
2023-08-16T04:07:37.921Z,39.19
2023-08-16T04:08:37.904Z,40.29
2023-08-16T04:09:37.932Z,40.69
2023-08-16T04:10:37.915Z,39.04
2023-08-16T04:11:37.909Z,38.76
2023-08-16T04:12:37.877Z,39.76
2023-08-16T04:13:37.865Z,38.68
2023-08-16T04:14:37.886Z,40.50
2023-08-16T04:15:37.884Z,39.35
2023-08-16T04:16:37.878Z,39.50
2023-08-16T04:17:37.954Z,39.66
2023-08-16T04:18:37.862Z,39.29
2023-08-16T04:19:37.854Z,46.01
2023-08-16T04:20:37.874Z,44.19
2023-08-16T04:21:37.832Z,40.03
2023-08-16T04:22:37.806Z,41.02
2023-08-16T04:23:37.816Z,39.87
2023-08-16T04:24:37.826Z,42.15
2023-08-16T04:25:37.796Z,40.36
2023-08-16T04:26:37.775Z,40.60
2023-08-16T04:27:37.792Z,41.01
2023-08-16T04:28:37.755Z,39.50
2023-08-16T04:29:38.781Z,39.84
2023-08-16T04:30:37.765Z,40.56
2023-08-16T04:31:37.779Z,39.62
2023-08-16T04:32:37.795Z,39.35
2023-08-16T04:33:37.758Z,40.51
2023-08-16T04:34:37.722Z,39.31
2023-08-16T04:35:37.702Z,38.69
2023-08-16T04:36:37.748Z,39.89
2023-08-16T04:37:37.692Z,39.53
2023-08-16T04:38:37.709Z,39.14
2023-08-16T04:39:37.665Z,39.88
2023-08-16T04:40:37.694Z,38.96
2023-08-16T04:41:37.652Z,41.54
2023-08-16T04:42:37.675Z,40.94
2023-08-16T04:43:37.654Z,39.37
2023-08-16T04:44:37.660Z,40.60
2023-08-16T04:45:37.690Z,41.29
2023-08-16T04:46:37.626Z,41.26
2023-08-16T04:47:37.704Z,41.01
2023-08-16T04:48:37.626Z,40.20
2023-08-16T04:49:37.602Z,41.16
2023-08-16T04:50:37.613Z,40.44
2023-08-16T04:51:37.604Z,43.14
2023-08-16T04:52:37.628Z,40.86
2023-08-16T04:53:37.574Z,39.24
2023-08-16T04:54:37.615Z,41.16
2023-08-16T04:55:37.573Z,40.54
2023-08-16T04:56:37.540Z,40.62
2023-08-16T04:57:37.578Z,40.28
2023-08-16T04:58:37.552Z,40.31
2023-08-16T04:59:37.526Z,40.91
2023-08-16T05:00:37.555Z,40.85
2023-08-16T05:01:38.528Z,39.03
2023-08-16T05:02:37.686Z,41.69
2023-08-16T05:03:37.714Z,41.14
2023-08-16T05:04:37.489Z,41.27
2023-08-16T05:05:38.383Z,41.18
2023-08-16T05:06:37.492Z,40.44
2023-08-16T05:07:37.471Z,40.78
2023-08-16T05:08:38.349Z,41.33
2023-08-16T05:09:37.454Z,41.56
2023-08-16T05:10:37.702Z,39.31
2023-08-16T05:11:37.460Z,39.49
2023-08-16T05:12:37.445Z,40.98
2023-08-16T05:13:37.588Z,41.39
2023-08-16T05:14:37.427Z,42.05
2023-08-16T05:15:37.443Z,40.03
2023-08-16T05:16:37.449Z,41.83
2023-08-16T05:17:37.423Z,42.77
2023-08-16T05:18:37.380Z,40.60
2023-08-16T05:19:38.293Z,46.53
2023-08-16T05:20:38.402Z,42.86
2023-08-16T05:21:38.796Z,41.45
2023-08-16T05:22:37.384Z,42.52
2023-08-16T05:23:37.375Z,40.72
2023-08-16T05:24:37.360Z,40.28
2023-08-16T05:25:37.342Z,40.81
2023-08-16T05:26:37.355Z,43.14
2023-08-16T05:27:37.315Z,41.07
2023-08-16T05:28:37.305Z,42.23
2023-08-16T05:29:37.334Z,41.35
2023-08-16T05:30:37.317Z,39.64
2023-08-16T05:31:37.278Z,42.58
2023-08-16T05:32:37.372Z,41.36
2023-08-16T05:33:37.321Z,39.43
2023-08-16T05:34:37.264Z,41.33
2023-08-16T05:35:37.260Z,40.31
2023-08-16T05:36:37.253Z,42.45
2023-08-16T05:37:37.236Z,42.37
2023-08-16T05:38:37.252Z,40.03
2023-08-16T05:39:37.268Z,40.55
2023-08-16T05:40:37.215Z,41.10
2023-08-16T05:41:37.204Z,40.33
2023-08-16T05:42:37.218Z,40.54
2023-08-16T05:43:37.220Z,43.97
2023-08-16T05:44:37.202Z,42.92
2023-08-16T05:45:37.174Z,40.05
2023-08-16T05:46:37.202Z,41.79
2023-08-16T05:47:37.193Z,40.52
2023-08-16T05:48:37.158Z,40.51
2023-08-16T05:49:37.146Z,41.02
2023-08-16T05:50:37.158Z,40.32
2023-08-16T05:51:37.131Z,40.76
2023-08-16T05:52:37.158Z,39.93
2023-08-16T05:53:37.136Z,42.92
2023-08-16T05:54:37.158Z,41.37
2023-08-16T05:55:37.160Z,40.88
2023-08-16T05:56:37.097Z,41.18
2023-08-16T05:57:37.125Z,39.26
2023-08-16T05:58:37.109Z,40.68
2023-08-16T05:59:37.077Z,41.21
2023-08-16T06:00:37.071Z,42.29
2023-08-16T06:01:37.101Z,40.78
2023-08-16T06:02:37.164Z,41.43
2023-08-16T06:03:39.971Z,40.21
2023-08-16T06:04:37.033Z,40.08
2023-08-16T06:05:37.023Z,40.56
2023-08-16T06:06:37.015Z,42.25
2023-08-16T06:07:37.028Z,41.16
2023-08-16T06:08:36.998Z,40.05
2023-08-16T06:09:37.009Z,42.55
2023-08-16T06:10:36.994Z,40.95
2023-08-16T06:11:37.001Z,41.25
2023-08-16T06:12:36.994Z,43.21
2023-08-16T06:13:36.988Z,47.87
2023-08-16T06:14:39.450Z,43.10
2023-08-16T06:15:37.968Z,45.74
2023-08-16T06:16:36.987Z,67.77
2023-08-16T06:17:37.023Z,53.18
2023-08-16T06:18:36.947Z,45.53
2023-08-16T06:19:36.910Z,44.51
2023-08-16T06:20:36.918Z,46.00
2023-08-16T06:21:36.941Z,42.79
2023-08-16T06:22:36.893Z,46.92
2023-08-16T06:23:36.885Z,41.57
2023-08-16T06:24:36.883Z,42.48
2023-08-16T06:25:36.876Z,41.27
2023-08-16T06:26:36.898Z,40.31
2023-08-16T06:27:36.852Z,41.96
2023-08-16T06:28:36.866Z,41.85
2023-08-16T06:29:36.845Z,41.22
2023-08-16T06:30:36.885Z,41.21
2023-08-16T06:31:36.831Z,41.67
2023-08-16T06:32:36.917Z,42.71
2023-08-16T06:33:36.829Z,40.36
2023-08-16T06:34:36.808Z,41.98
2023-08-16T06:35:36.819Z,42.92
2023-08-16T06:36:36.787Z,44.23
2023-08-16T06:37:38.391Z,42.60
2023-08-16T06:38:36.786Z,41.28
2023-08-16T06:39:36.799Z,41.68
2023-08-16T06:40:36.815Z,40.77
2023-08-16T06:41:36.758Z,39.84
2023-08-16T06:42:36.764Z,41.20
2023-08-16T06:43:36.749Z,41.96
2023-08-16T06:44:36.783Z,40.62
2023-08-16T06:45:36.742Z,40.30
2023-08-16T06:46:36.742Z,39.81
2023-08-16T06:47:36.771Z,42.03
2023-08-16T06:48:36.694Z,40.16
2023-08-16T06:49:36.713Z,40.31
2023-08-16T06:50:36.709Z,40.68
2023-08-16T06:51:36.672Z,41.77
2023-08-16T06:52:36.674Z,42.56
2023-08-16T06:53:36.695Z,40.38
2023-08-16T06:54:36.700Z,40.40
2023-08-16T06:55:36.646Z,40.93
2023-08-16T06:56:37.711Z,41.18
2023-08-16T06:57:36.629Z,40.97
2023-08-16T06:58:36.677Z,42.35
2023-08-16T06:59:36.645Z,42.20
2023-08-16T07:00:36.650Z,42.80
2023-08-16T07:01:36.643Z,40.91
2023-08-16T07:02:36.687Z,40.08
2023-08-16T07:03:36.733Z,40.32
2023-08-16T07:04:36.588Z,41.81
2023-08-16T07:05:36.579Z,40.12
2023-08-16T07:06:36.608Z,39.15
2023-08-16T07:07:36.565Z,41.77
2023-08-16T07:08:36.593Z,39.81
2023-08-16T07:09:36.563Z,41.08
2023-08-16T07:10:36.543Z,42.27
2023-08-16T07:11:36.532Z,39.64
2023-08-16T07:12:36.742Z,43.67
2023-08-16T07:13:36.532Z,41.17
2023-08-16T07:14:36.526Z,42.50
2023-08-16T07:15:36.531Z,39.96
2023-08-16T07:16:36.617Z,40.08
2023-08-16T07:17:36.517Z,41.58
2023-08-16T07:18:37.480Z,41.31
2023-08-16T07:19:36.497Z,43.34
2023-08-16T07:20:36.482Z,41.79
2023-08-16T07:21:36.486Z,40.39
2023-08-16T07:22:36.485Z,40.05
2023-08-16T07:23:36.450Z,41.31
2023-08-16T07:24:36.461Z,39.50
2023-08-16T07:25:36.433Z,42.00
2023-08-16T07:26:36.440Z,40.01
2023-08-16T07:27:36.476Z,41.45
2023-08-16T07:28:36.421Z,40.23
2023-08-16T07:29:36.396Z,41.40
2023-08-16T07:30:36.396Z,39.68
2023-08-16T07:31:37.427Z,41.76
2023-08-16T07:32:36.583Z,42.59
2023-08-16T07:33:36.382Z,41.33
2023-08-16T07:34:36.370Z,40.39
2023-08-16T07:35:37.340Z,40.24
2023-08-16T07:36:36.376Z,42.56
2023-08-16T07:37:36.340Z,39.37
2023-08-16T07:38:36.383Z,40.04
2023-08-16T07:39:36.352Z,38.43
2023-08-16T07:40:36.368Z,39.65
2023-08-16T07:41:36.355Z,39.96
2023-08-16T07:42:36.311Z,41.31
2023-08-16T07:43:36.319Z,40.76
2023-08-16T07:44:36.389Z,40.30
2023-08-16T07:45:36.495Z,40.92
2023-08-16T07:46:36.454Z,41.10
2023-08-16T07:47:36.479Z,40.56
2023-08-16T07:48:36.467Z,39.14
2023-08-16T07:49:36.332Z,42.17
2023-08-16T07:50:36.477Z,41.49
2023-08-16T07:51:36.244Z,40.53
2023-08-16T07:52:36.252Z,40.76
2023-08-16T07:53:36.241Z,41.06
2023-08-16T07:54:37.254Z,41.49
2023-08-16T07:55:36.244Z,41.02
2023-08-16T07:56:36.269Z,40.95
2023-08-16T07:57:36.203Z,40.79
2023-08-16T07:58:36.191Z,38.65
2023-08-16T07:59:36.252Z,36.29
2023-08-16T08:00:36.197Z,37.63
2023-08-16T08:01:37.217Z,40.11
2023-08-16T08:02:48.660Z,40.49
2023-08-16T08:03:38.186Z,39.05
2023-08-16T08:04:36.199Z,39.70
2023-08-16T08:05:36.182Z,41.56
2023-08-16T08:06:36.166Z,41.38
2023-08-16T08:07:36.138Z,42.67
2023-08-16T08:08:36.144Z,39.52
2023-08-16T08:09:36.284Z,39.22
2023-08-16T08:10:36.154Z,39.45
2023-08-16T08:11:36.108Z,39.57
2023-08-16T08:12:36.094Z,40.84
2023-08-16T08:13:36.154Z,40.93
2023-08-16T08:14:36.093Z,40.92
2023-08-16T08:15:36.107Z,42.86
2023-08-16T08:16:36.155Z,40.78
2023-08-16T08:17:36.112Z,40.40
2023-08-16T08:18:36.069Z,40.13
2023-08-16T08:19:36.057Z,38.73
2023-08-16T08:20:36.081Z,38.67
2023-08-16T08:21:36.031Z,40.06
2023-08-16T08:22:36.060Z,42.39
2023-08-16T08:23:36.179Z,38.20
2023-08-16T08:24:36.085Z,38.91
2023-08-16T08:25:36.023Z,40.67
2023-08-16T08:26:36.019Z,38.89
2023-08-16T08:27:36.008Z,38.08
2023-08-16T08:28:35.993Z,40.22
2023-08-16T08:29:36.050Z,38.45
2023-08-16T08:30:35.962Z,38.39
2023-08-16T08:31:36.050Z,36.30
2023-08-16T08:32:35.998Z,38.85
2023-08-16T08:33:35.993Z,40.56
2023-08-16T08:34:36.934Z,39.58
2023-08-16T08:35:35.968Z,41.86
2023-08-16T08:36:36.371Z,41.34
2023-08-16T08:37:35.910Z,38.22
2023-08-16T08:38:35.923Z,37.54
2023-08-16T08:39:35.922Z,38.89
2023-08-16T08:40:35.900Z,37.86
2023-08-16T08:41:47.359Z,40.75
2023-08-16T08:42:37.948Z,39.83
2023-08-16T08:43:39.477Z,36.74
2023-08-16T08:44:37.877Z,38.80
2023-08-16T08:45:35.891Z,39.25
2023-08-16T08:46:35.945Z,39.27
2023-08-16T08:47:35.872Z,39.30
2023-08-16T08:48:36.040Z,36.48
2023-08-16T08:49:36.850Z,36.71
2023-08-16T08:50:35.842Z,39.11
2023-08-16T08:51:35.819Z,38.05
2023-08-16T08:52:35.836Z,36.61
2023-08-16T08:53:35.808Z,42.59
2023-08-16T08:54:35.817Z,40.14
2023-08-16T08:55:35.844Z,38.78
2023-08-16T08:56:35.787Z,39.63
2023-08-16T08:57:35.800Z,40.00
2023-08-16T08:58:35.766Z,37.77
2023-08-16T08:59:35.833Z,38.21
2023-08-16T09:00:35.774Z,37.66
2023-08-16T09:01:35.843Z,39.54
2023-08-16T09:02:35.757Z,37.53
2023-08-16T09:03:35.774Z,37.77
2023-08-16T09:04:35.763Z,36.74
2023-08-16T09:05:35.713Z,39.87
2023-08-16T09:06:35.719Z,41.22
2023-08-16T09:07:35.721Z,36.78
2023-08-16T09:08:35.716Z,35.29
2023-08-16T09:09:36.717Z,37.90
2023-08-16T09:10:35.684Z,37.33
2023-08-16T09:11:35.678Z,37.20
2023-08-16T09:12:35.702Z,37.34
2023-08-16T09:13:35.718Z,36.41
2023-08-16T09:14:35.674Z,36.75
2023-08-16T09:15:35.660Z,34.48
2023-08-16T09:16:35.647Z,38.21
2023-08-16T09:17:35.728Z,37.23
2023-08-16T09:18:35.648Z,36.81
2023-08-16T09:19:35.611Z,36.97
2023-08-16T09:20:35.622Z,37.96
2023-08-16T09:21:35.599Z,38.63
2023-08-16T09:22:35.609Z,38.04
2023-08-16T09:23:35.619Z,36.27
2023-08-16T09:24:35.602Z,38.47
2023-08-16T09:25:35.629Z,37.15
2023-08-16T09:26:35.596Z,38.60
2023-08-16T09:27:35.593Z,37.96
2023-08-16T09:28:35.554Z,38.86
2023-08-16T09:29:35.560Z,38.07
2023-08-16T09:30:35.547Z,37.25
2023-08-16T09:31:35.581Z,35.74
2023-08-16T09:32:35.629Z,46.31
2023-08-16T09:33:35.513Z,37.33
2023-08-16T09:34:35.913Z,36.13
2023-08-16T09:35:36.504Z,35.33
2023-08-16T09:36:35.562Z,36.26
2023-08-16T09:37:35.508Z,38.54
2023-08-16T09:39:36.485Z,37.64
2023-08-16T09:40:35.470Z,39.50
2023-08-16T09:41:35.807Z,37.62
2023-08-16T09:42:35.501Z,35.76
2023-08-16T09:43:35.468Z,34.52
2023-08-16T09:44:35.480Z,36.60
2023-08-16T09:45:35.491Z,37.21
2023-08-16T09:46:35.521Z,36.58
2023-08-16T09:48:37.028Z,38.22
2023-08-16T09:49:35.417Z,35.90
2023-08-16T09:50:35.640Z,37.60
2023-08-16T09:52:36.412Z,36.57
2023-08-16T09:53:36.601Z,35.70
2023-08-16T09:54:36.423Z,36.12
2023-08-16T09:55:35.438Z,39.07
2023-08-16T09:56:38.065Z,35.58
2023-08-16T09:57:36.338Z,38.82
2023-08-16T09:58:35.371Z,37.69
2023-08-16T09:59:37.703Z,39.98
2023-08-16T10:00:36.408Z,38.13
2023-08-16T10:01:35.674Z,38.17
2023-08-16T10:03:36.396Z,37.99
2023-08-16T10:06:39.265Z,38.59
2023-08-16T10:07:36.283Z,37.49
2023-08-16T10:08:35.265Z,34.46
2023-08-16T10:09:35.319Z,38.94
2023-08-16T10:10:35.254Z,37.61
2023-08-16T10:11:35.245Z,37.42
2023-08-16T10:12:35.613Z,37.19
2023-08-16T10:13:35.379Z,36.18
2023-08-16T10:14:35.238Z,44.13
2023-08-16T10:15:35.244Z,39.63
2023-08-16T10:16:35.266Z,38.58
2023-08-16T10:17:35.231Z,40.32
2023-08-16T10:18:35.216Z,35.95
2023-08-16T10:19:35.452Z,41.65
2023-08-16T10:20:35.189Z,36.55
2023-08-16T10:21:35.199Z,36.90
2023-08-16T10:22:35.947Z,38.10
2023-08-16T10:23:35.369Z,34.67
2023-08-16T10:25:37.463Z,36.21
2023-08-16T10:26:35.132Z,36.56
2023-08-16T10:27:35.156Z,34.08
2023-08-16T10:28:35.130Z,38.49
2023-08-16T10:29:35.102Z,36.36
2023-08-16T10:30:35.146Z,38.96
2023-08-16T10:31:35.313Z,35.05
2023-08-16T10:32:35.143Z,36.41
2023-08-16T10:33:35.143Z,38.60
2023-08-16T10:34:35.092Z,38.58
2023-08-16T10:35:35.074Z,33.92
2023-08-16T10:36:35.060Z,37.80
2023-08-16T10:37:39.930Z,36.07
2023-08-16T10:38:38.459Z,38.77
2023-08-16T10:39:35.048Z,38.65
2023-08-16T10:40:35.048Z,39.15
2023-08-16T10:41:35.077Z,37.65
2023-08-16T10:42:35.065Z,39.12
2023-08-16T10:43:35.024Z,39.69
2023-08-16T10:44:35.002Z,38.94
2023-08-16T10:46:36.095Z,39.83
2023-08-16T10:47:35.032Z,38.06
2023-08-16T10:48:34.967Z,38.45
2023-08-16T10:49:34.961Z,39.13
2023-08-16T10:50:34.963Z,38.77
2023-08-16T10:51:34.976Z,36.76
2023-08-16T10:52:34.987Z,38.64
2023-08-16T10:53:34.979Z,36.50
2023-08-16T10:54:34.920Z,41.31
2023-08-16T10:55:34.981Z,40.89
2023-08-16T10:56:34.953Z,41.81
2023-08-16T10:57:35.048Z,40.36
2023-08-16T10:58:34.925Z,37.85
2023-08-16T10:59:34.914Z,37.94
2023-08-16T11:00:34.914Z,38.74
2023-08-16T11:01:35.000Z,36.80
2023-08-16T11:02:35.967Z,37.93
2023-08-16T11:03:34.946Z,39.38
2023-08-16T11:04:34.874Z,38.72
2023-08-16T11:05:35.066Z,40.29
2023-08-16T11:06:38.431Z,37.01
2023-08-16T11:07:35.853Z,36.41
2023-08-16T11:08:34.828Z,35.10
2023-08-16T11:09:34.825Z,38.43
2023-08-16T11:10:35.809Z,39.24
2023-08-16T11:11:34.819Z,38.49
2023-08-16T11:12:34.818Z,36.90
2023-08-16T11:13:34.787Z,36.41
2023-08-16T11:14:34.810Z,39.60
2023-08-16T11:15:34.789Z,37.46
2023-08-16T11:16:34.849Z,40.56
2023-08-16T11:17:34.861Z,39.56
2023-08-16T11:18:35.837Z,38.90
2023-08-16T11:19:35.900Z,43.00
2023-08-16T11:20:34.821Z,36.96
2023-08-16T11:21:34.725Z,40.27
2023-08-16T11:22:35.739Z,39.39
2023-08-16T11:23:34.726Z,34.24
2023-08-16T11:24:34.733Z,38.80
2023-08-16T11:25:34.742Z,34.03
2023-08-16T11:26:34.692Z,37.84
2023-08-16T11:27:34.716Z,36.94
2023-08-16T11:28:34.695Z,40.19
2023-08-16T11:29:34.712Z,38.34
2023-08-16T11:30:34.677Z,36.31
2023-08-16T11:31:34.734Z,36.90
2023-08-16T11:32:34.692Z,34.44
2023-08-16T11:33:34.675Z,36.65
2023-08-16T11:34:34.712Z,36.46
2023-08-16T11:35:34.648Z,33.83
2023-08-16T11:36:34.661Z,36.30
2023-08-16T11:37:34.694Z,38.54
2023-08-16T11:38:34.646Z,35.27
2023-08-16T11:39:35.329Z,35.20
2023-08-16T11:40:34.610Z,39.31
2023-08-16T11:41:35.456Z,41.16
2023-08-16T11:42:34.649Z,40.32
2023-08-16T11:43:34.634Z,37.93
2023-08-16T11:44:35.297Z,41.66
2023-08-16T11:45:34.601Z,37.52
2023-08-16T11:46:34.628Z,34.56
2023-08-16T11:47:34.732Z,34.76
2023-08-16T11:48:34.558Z,37.28
2023-08-16T11:49:34.618Z,35.31
2023-08-16T11:50:34.542Z,33.87
2023-08-16T11:51:34.522Z,34.46
2023-08-16T11:52:34.550Z,35.68
2023-08-16T11:53:34.534Z,34.30
2023-08-16T11:54:34.513Z,35.47
2023-08-16T11:55:34.576Z,33.19
2023-08-16T11:56:34.512Z,30.14
2023-08-16T11:57:35.472Z,34.95
2023-08-16T11:58:34.518Z,38.73
2023-08-16T11:59:34.631Z,32.67
2023-08-16T12:00:34.526Z,36.29
2023-08-16T12:01:34.611Z,34.89
2023-08-16T12:02:34.534Z,35.84
2023-08-16T12:03:34.496Z,34.38
2023-08-16T12:04:34.563Z,34.78
2023-08-16T12:05:34.481Z,35.09
2023-08-16T12:06:34.491Z,34.59
2023-08-16T12:07:34.438Z,32.39
2023-08-16T12:08:34.482Z,36.80
2023-08-16T12:09:34.437Z,36.54
2023-08-16T12:10:34.445Z,36.68
2023-08-16T12:11:34.500Z,35.96
2023-08-16T12:12:34.421Z,34.15
2023-08-16T12:13:34.395Z,36.97
2023-08-16T12:14:34.388Z,34.16
2023-08-16T12:15:34.401Z,34.88
2023-08-16T12:16:34.395Z,31.69
2023-08-16T12:17:34.399Z,35.40
2023-08-16T12:18:34.367Z,38.87
2023-08-16T12:19:34.353Z,37.95
2023-08-16T12:20:34.480Z,35.25
2023-08-16T12:21:34.338Z,37.07
2023-08-16T12:22:34.361Z,34.03
2023-08-16T12:23:34.334Z,36.56
2023-08-16T12:24:34.340Z,38.02
2023-08-16T12:25:34.574Z,36.17
2023-08-16T12:26:34.305Z,38.43
2023-08-16T12:27:34.320Z,34.94
2023-08-16T12:28:34.292Z,34.82
2023-08-16T12:29:34.326Z,38.21
2023-08-16T12:30:34.298Z,36.39
2023-08-16T12:31:35.538Z,36.30
2023-08-16T12:32:35.334Z,34.66
2023-08-16T12:33:34.308Z,34.72
2023-08-16T12:34:34.963Z,37.83
2023-08-16T12:35:34.484Z,35.59
2023-08-16T12:36:34.248Z,37.32
2023-08-16T12:37:37.531Z,35.82
2023-08-16T12:38:35.272Z,32.95
2023-08-16T12:39:34.318Z,35.65
2023-08-16T12:40:34.215Z,35.39
2023-08-16T12:41:34.202Z,34.62
2023-08-16T12:42:34.225Z,33.31
2023-08-16T12:43:37.563Z,34.07
2023-08-16T12:44:36.184Z,31.16
2023-08-16T12:45:34.253Z,30.25
2023-08-16T12:46:34.192Z,36.50
2023-08-16T12:47:34.203Z,33.57
2023-08-16T12:48:34.304Z,32.57
2023-08-16T12:49:34.155Z,33.90
2023-08-16T12:50:34.134Z,38.05
2023-08-16T12:51:34.129Z,34.50
2023-08-16T12:52:34.139Z,39.27
2023-08-16T12:54:37.441Z,37.48
2023-08-16T12:56:35.082Z,35.01
2023-08-16T12:58:35.190Z,38.75
2023-08-16T12:59:34.071Z,40.52
2023-08-16T13:01:42.370Z,36.60
2023-08-16T13:02:37.351Z,35.57
2023-08-16T13:03:35.482Z,34.97
2023-08-16T13:04:36.738Z,35.71